createdAt,value
2023-07-29T00:00:10.497Z,8.10
2023-07-29T00:03:02.085Z,8.43
2023-07-29T00:05:29.788Z,8.25
2023-07-29T00:07:57.227Z,10.65
2023-07-29T00:10:24.596Z,9.45
2023-07-29T00:12:51.827Z,9.75
2023-07-29T00:15:20.065Z,9.63
2023-07-29T00:17:47.297Z,10.82
2023-07-29T00:20:14.912Z,11.05
2023-07-29T00:22:42.367Z,12.02
2023-07-29T00:25:09.808Z,10.32
2023-07-29T00:27:37.192Z,18.45
2023-07-29T00:30:05.876Z,10.98
2023-07-29T00:32:33.273Z,11.57
2023-07-29T00:35:02.107Z,12.35
2023-07-29T00:37:31.166Z,11.48
2023-07-29T00:39:59.358Z,11.60
2023-07-29T00:42:26.500Z,10.40
2023-07-29T00:44:53.877Z,9.57
2023-07-29T00:47:22.795Z,9.38
2023-07-29T00:49:52.422Z,12.52
2023-07-29T00:52:19.624Z,8.45
2023-07-29T00:54:47.299Z,12.60
2023-07-29T00:57:16.478Z,8.60
2023-07-29T00:59:44.485Z,7.82
2023-07-29T01:02:11.808Z,11.23
2023-07-29T01:04:39.402Z,9.65
2023-07-29T01:07:48.126Z,10.02
2023-07-29T01:10:36.907Z,8.73
2023-07-29T01:13:27.935Z,12.90
2023-07-29T01:16:07.432Z,14.68
2023-07-29T01:18:37.773Z,17.43
2023-07-29T01:21:08.284Z,13.13
2023-07-29T01:23:36.704Z,13.82
2023-07-29T01:26:04.693Z,14.60
2023-07-29T01:28:32.651Z,13.75
2023-07-29T01:31:13.442Z,15.32
2023-07-29T01:33:45.642Z,15.52
2023-07-29T01:36:19.865Z,16.58
2023-07-29T01:38:49.413Z,17.27
2023-07-29T01:41:18.764Z,15.50
2023-07-29T01:43:47.641Z,15.52
2023-07-29T01:46:16.188Z,15.13
2023-07-29T01:48:43.852Z,17.55
2023-07-29T01:51:13.476Z,16.63
2023-07-29T01:53:40.579Z,14.43
2023-07-29T01:56:07.953Z,16.65
2023-07-29T01:58:37.837Z,17.05
2023-07-29T02:01:05.435Z,17.55
2023-07-29T02:03:32.819Z,15.38
2023-07-29T02:06:00.461Z,17.75
2023-07-29T02:08:27.970Z,20.98
2023-07-29T02:10:55.597Z,16.52
2023-07-29T02:13:22.884Z,16.40
2023-07-29T02:15:50.524Z,18.13
2023-07-29T02:18:17.847Z,18.38
2023-07-29T02:20:50.336Z,15.15
2023-07-29T02:23:20.827Z,15.85
2023-07-29T02:25:48.477Z,12.75
2023-07-29T02:28:15.743Z,14.93
2023-07-29T02:30:45.730Z,16.15
2023-07-29T02:33:12.980Z,18.13
2023-07-29T02:35:40.469Z,21.63
2023-07-29T02:38:07.938Z,14.80
2023-07-29T02:40:35.435Z,32.33
2023-07-29T02:43:02.651Z,28.23
2023-07-29T02:45:30.267Z,31.27
2023-07-29T02:47:57.424Z,27.50
2023-07-29T02:50:24.947Z,24.48
2023-07-29T02:52:53.191Z,22.88
2023-07-29T02:55:20.706Z,23.45
2023-07-29T02:57:47.949Z,23.13
2023-07-29T03:00:16.352Z,30.42
2023-07-29T03:02:43.687Z,27.48
2023-07-29T03:05:11.675Z,27.15
2023-07-29T03:07:38.990Z,20.77
2023-07-29T03:10:07.548Z,20.10
2023-07-29T03:12:34.782Z,18.52
2023-07-29T03:15:02.400Z,22.55
2023-07-29T03:17:30.765Z,15.55
2023-07-29T03:19:58.441Z,15.93
2023-07-29T03:22:25.709Z,13.40
2023-07-29T03:24:53.260Z,15.23
2023-07-29T03:27:20.384Z,14.57
2023-07-29T03:29:47.777Z,13.10
2023-07-29T03:32:14.901Z,13.05
2023-07-29T03:34:42.416Z,10.30
2023-07-29T03:37:09.773Z,13.75
2023-07-29T03:39:37.353Z,15.15
2023-07-29T03:42:04.703Z,13.23
2023-07-29T03:44:32.830Z,12.85
2023-07-29T03:46:59.957Z,9.18
2023-07-29T03:49:27.331Z,12.25
2023-07-29T03:51:54.464Z,10.80
2023-07-29T03:54:21.799Z,9.77
2023-07-29T03:56:48.919Z,8.20
2023-07-29T03:59:16.406Z,11.20
2023-07-29T04:01:43.637Z,10.95
2023-07-29T04:04:17.728Z,9.10
2023-07-29T04:06:45.005Z,10.63
2023-07-29T04:09:12.330Z,9.15
2023-07-29T04:11:39.437Z,8.35
2023-07-29T04:14:06.808Z,8.25
2023-07-29T04:16:34.103Z,9.18
2023-07-29T04:19:01.634Z,9.32
2023-07-29T04:21:29.248Z,8.20
2023-07-29T04:23:56.600Z,7.55
2023-07-29T04:26:23.687Z,14.15
2023-07-29T04:28:51.154Z,7.00
2023-07-29T04:31:18.326Z,10.40
2023-07-29T04:33:45.641Z,8.30
2023-07-29T04:36:12.744Z,9.68
2023-07-29T04:38:40.670Z,6.60
2023-07-29T04:41:10.109Z,8.65
2023-07-29T04:43:37.687Z,8.68
2023-07-29T04:46:08.997Z,7.03
2023-07-29T04:48:38.205Z,7.55
2023-07-29T04:51:05.305Z,7.18
2023-07-29T04:53:32.709Z,7.90
2023-07-29T04:56:00.671Z,7.07
2023-07-29T04:58:30.061Z,4.80
2023-07-29T05:00:59.059Z,5.25
2023-07-29T05:03:26.510Z,10.52
2023-07-29T05:05:55.849Z,4.47
2023-07-29T05:08:23.282Z,5.43
2023-07-29T05:10:51.354Z,4.80
2023-07-29T05:13:18.965Z,4.60
2023-07-29T05:15:46.327Z,4.25
2023-07-29T05:18:13.812Z,4.22
2023-07-29T05:20:41.317Z,4.57
2023-07-29T05:23:08.863Z,4.32
2023-07-29T05:25:36.368Z,3.67
2023-07-29T05:28:04.661Z,5.72
2023-07-29T05:30:38.335Z,4.95
2023-07-29T05:33:09.709Z,10.50
2023-07-29T05:35:36.943Z,4.80
2023-07-29T05:38:06.360Z,3.90
2023-07-29T05:40:33.546Z,4.10
2023-07-29T05:43:01.025Z,6.68
2023-07-29T05:45:28.302Z,5.28
2023-07-29T05:47:55.884Z,3.78
2023-07-29T05:50:24.178Z,4.70
2023-07-29T05:52:51.557Z,3.13
2023-07-29T05:55:18.654Z,3.40
2023-07-29T05:57:46.071Z,4.53
2023-07-29T06:00:13.798Z,5.32
2023-07-29T06:02:44.059Z,3.45
2023-07-29T06:05:16.174Z,5.75
2023-07-29T06:07:46.121Z,9.25
2023-07-29T06:10:18.792Z,4.97
2023-07-29T06:12:47.788Z,3.90
2023-07-29T06:15:15.895Z,3.60
2023-07-29T06:17:43.525Z,5.60
2023-07-29T06:20:11.240Z,4.03
2023-07-29T06:22:38.760Z,3.30
2023-07-29T06:25:06.005Z,2.92
2023-07-29T06:27:33.555Z,5.88
2023-07-29T06:30:00.766Z,3.83
2023-07-29T06:32:28.259Z,3.05
2023-07-29T06:34:55.675Z,3.25
2023-07-29T06:37:23.389Z,2.90
2023-07-29T06:39:50.422Z,7.20
2023-07-29T06:42:17.902Z,4.10
2023-07-29T06:44:47.033Z,12.63
2023-07-29T06:47:14.429Z,4.35
2023-07-29T06:49:41.557Z,4.70
2023-07-29T06:52:09.104Z,4.18
2023-07-29T06:54:36.262Z,4.28
2023-07-29T06:57:03.799Z,7.78
2023-07-29T06:59:30.820Z,3.78
2023-07-29T07:01:58.434Z,3.38
2023-07-29T07:04:25.868Z,6.57
2023-07-29T07:06:53.271Z,6.20
2023-07-29T07:09:20.846Z,2.95
2023-07-29T07:11:48.251Z,3.53
2023-07-29T07:14:15.583Z,6.80
2023-07-29T07:16:43.018Z,8.77
2023-07-29T07:19:10.140Z,3.50
2023-07-29T07:21:37.464Z,4.30
2023-07-29T07:24:04.723Z,6.82
2023-07-29T07:26:32.368Z,7.47
2023-07-29T07:29:00.234Z,7.13
2023-07-29T07:31:29.995Z,8.85
2023-07-29T07:33:57.927Z,6.20
2023-07-29T07:36:25.900Z,4.93
2023-07-29T07:38:54.253Z,8.38
2023-07-29T07:41:23.600Z,6.88
2023-07-29T07:43:52.098Z,4.25
2023-07-29T07:46:20.119Z,6.28
2023-07-29T07:48:50.357Z,4.03
2023-07-29T07:51:22.599Z,4.65
2023-07-29T07:53:50.308Z,4.25
2023-07-29T07:56:18.203Z,4.68
2023-07-29T07:58:46.072Z,6.63
2023-07-29T08:01:14.218Z,15.52
2023-07-29T08:03:43.005Z,5.82
2023-07-29T08:06:11.219Z,9.43
2023-07-29T08:08:38.982Z,11.63
2023-07-29T08:11:06.979Z,7.75
2023-07-29T08:13:34.866Z,11.18
2023-07-29T08:16:02.961Z,7.05
2023-07-29T08:18:30.823Z,11.65
2023-07-29T08:21:00.605Z,4.93
2023-07-29T08:23:28.642Z,3.40
2023-07-29T08:26:02.730Z,3.15
2023-07-29T08:28:35.716Z,3.00
2023-07-29T08:31:03.575Z,2.15
2023-07-29T08:33:31.644Z,3.70
2023-07-29T08:35:59.478Z,3.75
2023-07-29T08:38:29.372Z,8.95
2023-07-29T08:41:11.737Z,3.08
2023-07-29T08:43:43.242Z,3.67
2023-07-29T08:46:11.494Z,3.00
2023-07-29T08:48:45.250Z,4.28
2023-07-29T08:51:13.348Z,6.18
2023-07-29T08:53:41.033Z,3.20
2023-07-29T08:56:09.141Z,4.28
2023-07-29T08:58:37.187Z,4.88
2023-07-29T09:01:04.727Z,3.40
2023-07-29T09:03:32.106Z,5.40
2023-07-29T09:06:00.429Z,5.53
2023-07-29T09:08:28.488Z,3.60
2023-07-29T09:10:56.774Z,3.47
2023-07-29T09:13:24.111Z,3.47
2023-07-29T09:15:56.938Z,3.13
2023-07-29T09:18:26.884Z,3.83
2023-07-29T09:20:54.549Z,2.45
2023-07-29T09:23:22.093Z,3.78
2023-07-29T09:25:50.419Z,4.60
2023-07-29T09:28:18.065Z,3.72
2023-07-29T09:30:47.968Z,2.97
2023-07-29T09:33:15.473Z,4.22
2023-07-29T09:35:43.239Z,6.55
2023-07-29T09:38:16.398Z,3.92
2023-07-29T09:40:46.536Z,6.43
2023-07-29T09:43:14.425Z,3.58
2023-07-29T09:45:42.237Z,3.80
2023-07-29T09:48:11.447Z,5.82
2023-07-29T09:53:08.408Z,3.30
2023-07-29T09:55:36.164Z,2.90
2023-07-29T09:58:05.371Z,2.45
2023-07-29T10:00:33.729Z,2.55
2023-07-29T10:03:02.144Z,2.72
2023-07-29T10:05:31.164Z,6.07
2023-07-29T10:07:58.792Z,2.63
2023-07-29T10:10:28.698Z,6.05
2023-07-29T10:12:57.783Z,3.08
2023-07-29T10:15:26.763Z,3.08
2023-07-29T10:17:54.783Z,2.05
2023-07-29T10:20:22.796Z,1.80
2023-07-29T10:22:53.293Z,3.60
2023-07-29T10:25:24.252Z,2.85
2023-07-29T10:28:04.746Z,2.60
2023-07-29T10:30:33.259Z,3.17
2023-07-29T10:33:04.982Z,3.15
2023-07-29T10:35:34.899Z,6.53
2023-07-29T10:40:48.708Z,1.95
2023-07-29T10:43:25.343Z,3.15
2023-07-29T10:46:02.656Z,2.53
2023-07-29T10:48:44.552Z,4.28
2023-07-29T10:51:31.246Z,3.83
2023-07-29T10:54:11.099Z,2.13
2023-07-29T10:56:42.778Z,2.42
2023-07-29T10:59:13.193Z,2.47
2023-07-29T11:01:45.119Z,5.43
2023-07-29T11:04:21.837Z,2.00
2023-07-29T11:07:04.595Z,2.10
2023-07-29T11:09:56.731Z,2.50
2023-07-29T11:12:51.615Z,6.90
2023-07-29T11:15:51.750Z,2.60
2023-07-29T11:18:22.726Z,2.13
2023-07-29T11:20:50.987Z,4.35
2023-07-29T11:23:19.650Z,2.13
2023-07-29T11:25:46.956Z,3.05
2023-07-29T11:28:14.462Z,2.13
2023-07-29T11:30:41.774Z,2.75
2023-07-29T11:33:09.565Z,3.65
2023-07-29T11:35:36.758Z,3.13
2023-07-29T11:38:04.995Z,2.70
2023-07-29T11:40:32.152Z,3.13
2023-07-29T11:42:59.602Z,4.30
2023-07-29T11:45:35.855Z,3.15
2023-07-29T11:48:14.086Z,2.05
2023-07-29T11:50:41.423Z,3.53
2023-07-29T11:53:09.083Z,1.92
2023-07-29T11:55:36.386Z,2.25
2023-07-29T11:58:04.431Z,2.88
2023-07-29T12:00:32.660Z,2.58
2023-07-29T12:03:01.382Z,2.45
2023-07-29T12:05:29.015Z,8.90
2023-07-29T12:07:56.815Z,3.83
2023-07-29T12:10:24.340Z,1.75
2023-07-29T12:12:52.529Z,2.47
2023-07-29T12:15:32.082Z,5.88
2023-07-29T12:18:03.602Z,3.25
2023-07-29T12:20:32.566Z,2.10
2023-07-29T12:23:33.445Z,2.95
2023-07-29T12:26:01.992Z,2.30
2023-07-29T12:28:30.111Z,3.78
2023-07-29T12:30:58.795Z,2.05
2023-07-29T12:33:37.268Z,1.70
2023-07-29T12:36:04.731Z,2.50
2023-07-29T12:38:37.411Z,2.05
2023-07-29T12:41:05.143Z,2.42
2023-07-29T12:43:32.876Z,1.92
2023-07-29T12:46:00.242Z,7.07
2023-07-29T12:48:27.765Z,1.25
2023-07-29T12:50:55.196Z,1.88
2023-07-29T12:53:22.783Z,2.13
2023-07-29T12:55:49.906Z,3.17
2023-07-29T12:58:17.511Z,2.28
2023-07-29T13:00:44.880Z,1.50
2023-07-29T13:03:12.383Z,8.10
2023-07-29T13:05:40.053Z,2.97
2023-07-29T13:08:07.608Z,1.73
2023-07-29T13:10:34.918Z,3.28
2023-07-29T13:13:02.494Z,5.68
2023-07-29T13:15:29.696Z,2.50
2023-07-29T13:17:57.192Z,3.38
2023-07-29T13:20:24.548Z,3.22
2023-07-29T13:22:52.286Z,1.70
2023-07-29T13:25:19.642Z,2.40
2023-07-29T13:27:47.459Z,1.40
2023-07-29T13:30:15.178Z,12.68
2023-07-29T13:32:43.372Z,10.27
2023-07-29T13:35:10.679Z,1.40
2023-07-29T13:37:38.391Z,4.72
2023-07-29T13:40:06.503Z,4.45
2023-07-29T13:42:34.021Z,10.45
2023-07-29T13:45:01.937Z,5.53
2023-07-29T13:47:29.544Z,5.20
2023-07-29T13:49:56.719Z,2.13
2023-07-29T13:52:24.192Z,4.15
2023-07-29T13:54:51.671Z,13.85
2023-07-29T13:57:19.435Z,8.70
2023-07-29T13:59:46.930Z,1.40
2023-07-29T14:02:15.015Z,3.15
2023-07-29T14:04:42.553Z,4.80
2023-07-29T14:07:10.280Z,1.70
2023-07-29T14:09:38.484Z,2.72
2023-07-29T14:12:06.830Z,4.47
2023-07-29T14:14:34.349Z,3.80
2023-07-29T14:17:03.088Z,1.40
2023-07-29T14:19:31.430Z,2.72
2023-07-29T14:21:59.376Z,1.30
2023-07-29T14:24:26.846Z,1.70
2023-07-29T14:26:54.705Z,1.67
2023-07-29T14:29:22.259Z,1.98
2023-07-29T14:31:50.101Z,2.70
2023-07-29T14:34:17.312Z,3.63
2023-07-29T14:36:44.895Z,1.48
2023-07-29T14:39:12.798Z,3.55
2023-07-29T14:41:40.886Z,2.47
2023-07-29T14:44:08.224Z,3.10
2023-07-29T14:46:36.134Z,1.55
2023-07-29T14:49:03.675Z,2.83
2023-07-29T14:51:31.274Z,6.65
2023-07-29T14:53:58.602Z,2.28
2023-07-29T14:56:26.261Z,2.83
2023-07-29T14:58:53.323Z,2.25
2023-07-29T15:01:20.871Z,3.65
2023-07-29T15:03:48.404Z,3.80
2023-07-29T15:06:16.003Z,17.90
2023-07-29T15:08:43.609Z,1.65
2023-07-29T15:11:11.117Z,1.98
2023-07-29T15:13:38.266Z,3.42
2023-07-29T15:16:06.500Z,1.50
2023-07-29T15:18:34.665Z,2.95
2023-07-29T15:21:03.468Z,5.53
2023-07-29T15:29:04.487Z,2.00
2023-07-29T15:31:32.254Z,3.53
2023-07-29T15:33:59.464Z,2.90
2023-07-29T15:36:27.172Z,1.65
2023-07-29T15:38:54.419Z,1.73
2023-07-29T15:41:22.481Z,6.57
2023-07-29T15:43:50.129Z,3.33
2023-07-29T15:46:17.667Z,1.58
2023-07-29T15:48:45.048Z,1.80
2023-07-29T15:51:12.643Z,7.28
2023-07-29T15:53:39.908Z,1.85
2023-07-29T15:56:07.535Z,1.40
2023-07-29T15:58:35.028Z,1.42
2023-07-29T16:01:04.656Z,2.85
2023-07-29T16:03:31.920Z,1.25
2023-07-29T16:05:59.447Z,2.10
2023-07-29T16:08:26.658Z,3.80
2023-07-29T16:10:54.720Z,2.05
2023-07-29T16:13:22.111Z,4.03
2023-07-29T16:15:49.520Z,5.90
2023-07-29T16:18:16.678Z,3.85
2023-07-29T16:20:44.183Z,3.55
2023-07-29T16:23:11.457Z,15.85
2023-07-29T16:25:39.145Z,2.33
2023-07-29T16:28:06.306Z,4.85
2023-07-29T16:30:34.142Z,2.30
2023-07-29T16:33:01.664Z,8.07
2023-07-29T16:35:29.212Z,10.15
2023-07-29T16:37:58.762Z,1.85
2023-07-29T16:40:26.844Z,3.78
2023-07-29T16:42:55.057Z,2.75
2023-07-29T16:45:24.081Z,7.38
2023-07-29T16:47:51.881Z,1.80
2023-07-29T16:50:19.512Z,2.78
2023-07-29T16:52:47.600Z,3.97
2023-07-29T16:55:15.134Z,1.48
2023-07-29T16:57:42.423Z,4.20
2023-07-29T17:00:10.363Z,2.42
2023-07-29T17:02:37.662Z,36.83
2023-07-29T17:05:07.601Z,26.77
2023-07-29T17:07:34.917Z,7.90
2023-07-29T17:10:02.661Z,2.78
2023-07-29T17:12:29.985Z,3.67
2023-07-29T17:14:57.466Z,2.13
2023-07-29T17:17:24.903Z,1.40
2023-07-29T17:19:52.655Z,3.65
2023-07-29T17:22:20.028Z,2.75
2023-07-29T17:24:47.642Z,2.08
2023-07-29T17:27:15.008Z,5.38
2023-07-29T17:29:43.397Z,1.63
2023-07-29T17:32:10.827Z,2.78
2023-07-29T17:34:38.453Z,11.35
2023-07-29T17:37:06.125Z,4.93
2023-07-29T17:39:33.640Z,5.05
2023-07-29T17:42:01.288Z,11.65
2023-07-29T17:44:29.111Z,4.65
2023-07-29T17:46:57.120Z,8.45
2023-07-29T17:49:24.760Z,8.15
2023-07-29T17:51:52.159Z,15.60
2023-07-29T17:54:19.625Z,10.10
2023-07-29T17:56:46.895Z,15.98
2023-07-29T17:59:14.488Z,17.20
2023-07-29T18:01:42.790Z,7.18
2023-07-29T18:04:10.263Z,5.90
2023-07-29T18:06:37.878Z,7.30
2023-07-29T18:09:05.710Z,8.85
2023-07-29T18:11:33.046Z,9.63
2023-07-29T18:14:00.757Z,16.88
2023-07-29T18:16:28.028Z,14.07
2023-07-29T18:18:55.571Z,13.38
2023-07-29T18:21:22.936Z,7.93
2023-07-29T18:23:50.701Z,9.23
2023-07-29T18:26:18.532Z,9.95
2023-07-29T18:28:46.886Z,8.13
2023-07-29T18:31:14.400Z,7.53
2023-07-29T18:33:42.531Z,8.35
2023-07-29T18:36:10.639Z,8.10
2023-07-29T18:38:39.779Z,6.70
2023-07-29T18:41:08.467Z,6.03
2023-07-29T18:43:37.296Z,11.35
2023-07-29T18:46:05.376Z,10.80
2023-07-29T18:49:24.740Z,7.43
2023-07-29T18:51:52.117Z,6.63
2023-07-29T18:54:20.115Z,8.90
2023-07-29T18:56:48.035Z,6.88
2023-07-29T18:59:20.055Z,8.88
2023-07-29T19:01:48.101Z,7.20
2023-07-29T19:04:15.915Z,8.23
2023-07-29T19:06:43.549Z,7.75
2023-07-29T19:09:11.675Z,8.95
2023-07-29T19:11:39.145Z,8.18
2023-07-29T19:14:07.063Z,5.20
2023-07-29T19:16:34.666Z,9.48
2023-07-29T19:19:03.901Z,3.80
2023-07-29T19:21:43.282Z,4.10
2023-07-29T19:24:36.761Z,5.60
2023-07-29T19:27:06.193Z,7.38
2023-07-29T19:29:35.991Z,4.75
2023-07-29T19:32:03.962Z,4.63
2023-07-29T19:34:31.962Z,5.22
2023-07-29T19:37:01.037Z,6.68
2023-07-29T19:39:29.320Z,5.05
2023-07-29T19:41:58.045Z,7.47
2023-07-29T19:44:26.252Z,5.45
2023-07-29T19:46:54.045Z,4.78
2023-07-29T19:49:22.214Z,6.03
2023-07-29T19:51:51.037Z,2.75
2023-07-29T19:54:20.114Z,5.10
2023-07-29T19:56:47.668Z,2.33
2023-07-29T19:59:15.674Z,4.68
2023-07-29T20:01:43.548Z,2.60
2023-07-29T20:04:12.223Z,3.22
2023-07-29T20:06:40.024Z,3.80
2023-07-29T20:09:08.528Z,3.78
2023-07-29T20:11:36.487Z,3.53
2023-07-29T20:14:05.673Z,2.63
2023-07-29T20:16:34.530Z,4.88
2023-07-29T20:19:02.672Z,2.92
2023-07-29T20:21:31.158Z,2.88
2023-07-29T20:24:01.918Z,2.45
2023-07-29T20:26:34.268Z,2.28
2023-07-29T20:29:03.067Z,8.65
2023-07-29T20:31:31.141Z,4.55
2023-07-29T20:34:04.283Z,3.47
2023-07-29T20:36:33.171Z,2.75
2023-07-29T20:39:01.825Z,2.70
2023-07-29T20:41:29.990Z,2.83
2023-07-29T20:43:58.655Z,7.57
2023-07-29T20:46:28.792Z,10.10
2023-07-29T20:48:56.923Z,6.00
2023-07-29T20:51:24.765Z,7.43
2023-07-29T20:53:53.354Z,5.80
2023-07-29T20:56:20.708Z,4.50
2023-07-29T20:58:49.182Z,7.00
2023-07-29T21:01:17.885Z,3.97
2023-07-29T21:03:46.587Z,10.38
2023-07-29T21:06:14.287Z,9.80
2023-07-29T21:08:42.396Z,5.30
2023-07-29T21:11:11.504Z,4.63
2023-07-29T21:13:40.136Z,2.53
2023-07-29T21:16:07.345Z,3.38
2023-07-29T21:18:35.338Z,2.17
2023-07-29T21:21:02.652Z,5.72
2023-07-29T21:23:31.231Z,4.05
2023-07-29T21:25:59.041Z,5.68
2023-07-29T21:28:27.084Z,4.82
2023-07-29T21:30:56.828Z,2.55
2023-07-29T21:33:25.014Z,7.53
2023-07-29T21:35:52.447Z,8.88
2023-07-29T21:40:55.403Z,1.83
2023-07-29T21:43:23.662Z,2.97
2023-07-29T21:45:51.429Z,6.05
2023-07-29T21:48:20.060Z,4.57
2023-07-29T21:50:50.722Z,4.50
2023-07-29T21:53:19.399Z,3.95
2023-07-29T21:55:48.083Z,4.43
2023-07-29T21:58:15.979Z,4.72
2023-07-29T22:00:43.321Z,7.82
2023-07-29T22:03:11.501Z,3.83
2023-07-29T22:05:39.752Z,4.07
2023-07-29T22:08:07.925Z,4.68
2023-07-29T22:10:40.052Z,2.92
2023-07-29T22:13:08.841Z,5.45
2023-07-29T22:15:37.316Z,3.40
2023-07-29T22:18:05.904Z,6.53
2023-07-29T22:20:33.301Z,2.58
2023-07-29T22:23:00.952Z,5.70
2023-07-29T22:25:28.510Z,5.60
2023-07-29T22:27:56.615Z,4.60
2023-07-29T22:30:26.520Z,5.38
2023-07-29T22:32:54.501Z,4.25
2023-07-29T22:35:22.185Z,5.68
2023-07-29T22:37:49.959Z,3.95
2023-07-29T22:40:18.401Z,4.65
2023-07-29T22:42:46.253Z,5.47
2023-07-29T22:45:13.665Z,2.58
2023-07-29T22:47:42.577Z,6.32
2023-07-29T22:50:10.334Z,5.80
2023-07-29T22:52:38.263Z,3.67
2023-07-29T22:55:06.834Z,7.40
2023-07-29T22:57:34.446Z,4.85
2023-07-29T23:00:01.925Z,6.82
2023-07-29T23:02:30.663Z,4.25
2023-07-29T23:04:58.191Z,4.43
2023-07-29T23:07:25.713Z,6.88
2023-07-29T23:09:52.975Z,5.57
2023-07-29T23:12:21.170Z,3.67
2023-07-29T23:14:48.976Z,4.05
2023-07-29T23:17:16.590Z,7.03
2023-07-29T23:19:43.723Z,7.28
2023-07-29T23:22:11.161Z,4.00
2023-07-29T23:24:38.452Z,5.60
2023-07-29T23:27:06.437Z,5.43
2023-07-29T23:29:33.598Z,5.75
2023-07-29T23:32:01.085Z,9.15
2023-07-29T23:34:28.319Z,9.18
2023-07-29T23:36:55.709Z,4.20
2023-07-29T23:39:22.851Z,4.32
2023-07-29T23:41:50.590Z,9.43
2023-07-29T23:44:17.791Z,8.68
2023-07-29T23:46:45.461Z,4.32
2023-07-29T23:49:12.710Z,4.75
2023-07-29T23:51:40.630Z,3.95
2023-07-29T23:54:08.212Z,5.15
2023-07-29T23:56:36.012Z,4.45
2023-07-29T23:59:03.167Z,5.75
